UAL2397 KLAX-KEWR
Flight info
| Callsign | UAL2397 |
|---|---|
| Flight time | 5h 0m |
| Altitude | 39000 |
| Route | OSHNN1 BEALE J146 DVC HBU MCK OVR DSM EVOTE NELLS KEEHO J584 SLT FQM3 |
| Aircraft | B772/H-SDE2E3FGHIJ5LORVWXY/LB1D1 |
Departure
| Time | 2026-04-26 06:45 |
|---|---|
| Airport | Los Angeles International Airport (KLAX) |
Arrival
| Time | 2026-04-26 11:46 |
|---|---|
| Airport | Newark Liberty International Airport (KEWR) |
| Time | Latitude | Longitude | Altitude | Speed | Heading |
|---|---|---|---|---|---|
| 2026-04-26 06:10 | 33.94106 | -118.39895 | 97 ft | 0 kts | 306° |
| 2026-04-26 06:31 | 33.94094 | -118.39876 | 100 ft | 4 kts | 306° |
| 2026-04-26 06:31 | 33.94082 | -118.39854 | 99 ft | 4 kts | 274° |
| 2026-04-26 06:31 | 33.94090 | -118.39833 | 97 ft | 4 kts | 202° |
| 2026-04-26 06:31 | 33.94115 | -118.39829 | 98 ft | 4 kts | 173° |
| 2026-04-26 06:32 | 33.94142 | -118.39833 | 99 ft | 4 kts | 173° |
| 2026-04-26 06:32 | 33.94153 | -118.39834 | 97 ft | 0 kts | 173° |
| 2026-04-26 06:36 | 33.94142 | -118.39833 | 97 ft | 2 kts | 173° |
| 2026-04-26 06:36 | 33.94131 | -118.39831 | 97 ft | 1 kts | 173° |
| 2026-04-26 06:36 | 33.94121 | -118.39829 | 100 ft | 3 kts | 173° |
| 2026-04-26 06:36 | 33.94087 | -118.39826 | 97 ft | 7 kts | 178° |
| 2026-04-26 06:37 | 33.94058 | -118.39826 | 99 ft | 0 kts | 178° |
| 2026-04-26 06:37 | 33.94055 | -118.39826 | 99 ft | 3 kts | 178° |
| 2026-04-26 06:38 | 33.93997 | -118.39820 | 100 ft | 13 kts | 170° |
| 2026-04-26 06:38 | 33.93915 | -118.39757 | 101 ft | 16 kts | 114° |
| 2026-04-26 06:38 | 33.93916 | -118.39639 | 99 ft | 13 kts | 84° |
| 2026-04-26 06:38 | 33.93925 | -118.39540 | 99 ft | 11 kts | 83° |
| 2026-04-26 06:39 | 33.93933 | -118.39453 | 99 ft | 10 kts | 83° |
| 2026-04-26 06:39 | 33.93941 | -118.39370 | 101 ft | 10 kts | 83° |
| 2026-04-26 06:39 | 33.93950 | -118.39292 | 100 ft | 9 kts | 82° |
| 2026-04-26 06:39 | 33.93959 | -118.39205 | 99 ft | 10 kts | 82° |
| 2026-04-26 06:40 | 33.93968 | -118.39127 | 101 ft | 9 kts | 82° |
| 2026-04-26 06:40 | 33.93975 | -118.39061 | 98 ft | 7 kts | 83° |
| 2026-04-26 06:40 | 33.93982 | -118.38997 | 98 ft | 8 kts | 83° |
| 2026-04-26 06:40 | 33.93989 | -118.38922 | 98 ft | 9 kts | 83° |
| 2026-04-26 06:41 | 33.93998 | -118.38841 | 98 ft | 10 kts | 83° |
| 2026-04-26 06:41 | 33.94007 | -118.38755 | 99 ft | 11 kts | 83° |
| 2026-04-26 06:41 | 33.94016 | -118.38667 | 100 ft | 11 kts | 83° |
| 2026-04-26 06:41 | 33.94025 | -118.38579 | 101 ft | 11 kts | 83° |
| 2026-04-26 06:42 | 33.94034 | -118.38488 | 102 ft | 11 kts | 83° |
| 2026-04-26 06:42 | 33.94044 | -118.38393 | 101 ft | 12 kts | 83° |
| 2026-04-26 06:42 | 33.94054 | -118.38295 | 100 ft | 12 kts | 83° |
| 2026-04-26 06:42 | 33.94064 | -118.38187 | 99 ft | 14 kts | 83° |
| 2026-04-26 06:43 | 33.94074 | -118.38093 | 98 ft | 5 kts | 83° |
| 2026-04-26 06:43 | 33.94076 | -118.38070 | 97 ft | 0 kts | 84° |
| 2026-04-26 06:44 | 33.94061 | -118.38020 | 97 ft | 8 kts | 135° |
| 2026-04-26 06:44 | 33.94015 | -118.38001 | 98 ft | 6 kts | 180° |
| 2026-04-26 06:44 | 33.93989 | -118.38021 | 98 ft | 3 kts | 236° |
| 2026-04-26 06:44 | 33.93983 | -118.38052 | 99 ft | 10 kts | 260° |
| 2026-04-26 06:45 | 33.93955 | -118.38324 | 103 ft | 74 kts | 263° |
| 2026-04-26 06:45 | 33.93849 | -118.39341 | 118 ft | 168 kts | 263° |
| 2026-04-26 06:45 | 33.93682 | -118.40929 | 633 ft | 213 kts | 263° |
| 2026-04-26 06:45 | 33.93491 | -118.42791 | 1383 ft | 243 kts | 263° |
| 2026-04-26 06:46 | 33.93284 | -118.44945 | 2117 ft | 263 kts | 263° |
| 2026-04-26 06:46 | 33.92961 | -118.47008 | 3051 ft | 245 kts | 246° |
| 2026-04-26 06:46 | 33.91885 | -118.48499 | 4081 ft | 233 kts | 215° |
| 2026-04-26 06:46 | 33.90553 | -118.49658 | 4675 ft | 240 kts | 224° |
| 2026-04-26 06:47 | 33.89468 | -118.51254 | 5059 ft | 257 kts | 233° |
| 2026-04-26 06:47 | 33.88349 | -118.52957 | 5037 ft | 261 kts | 230° |
| 2026-04-26 06:47 | 33.87170 | -118.54631 | 5029 ft | 260 kts | 226° |
| 2026-04-26 06:47 | 33.85695 | -118.55810 | 5253 ft | 265 kts | 194° |
| 2026-04-26 06:48 | 33.83873 | -118.55931 | 6171 ft | 264 kts | 171° |
| 2026-04-26 06:48 | 33.82070 | -118.55459 | 6958 ft | 268 kts | 167° |
| 2026-04-26 06:48 | 33.80241 | -118.54948 | 7806 ft | 271 kts | 167° |
| 2026-04-26 06:48 | 33.78395 | -118.54440 | 8695 ft | 273 kts | 167° |
| 2026-04-26 06:49 | 33.76528 | -118.53928 | 9538 ft | 277 kts | 167° |
| 2026-04-26 06:49 | 33.74636 | -118.53416 | 10330 ft | 282 kts | 167° |
| 2026-04-26 06:49 | 33.72651 | -118.52877 | 10648 ft | 305 kts | 167° |
| 2026-04-26 06:49 | 33.70613 | -118.51992 | 10895 ft | 321 kts | 146° |
| 2026-04-26 06:50 | 33.69102 | -118.50004 | 11582 ft | 330 kts | 117° |
| 2026-04-26 06:50 | 33.68289 | -118.47476 | 12242 ft | 332 kts | 108° |
| 2026-04-26 06:50 | 33.67533 | -118.44798 | 12986 ft | 339 kts | 109° |
| 2026-04-26 06:50 | 33.66718 | -118.41974 | 13929 ft | 340 kts | 109° |
| 2026-04-26 06:51 | 33.65946 | -118.39340 | 14747 ft | 343 kts | 109° |
| 2026-04-26 06:51 | 33.64790 | -118.35423 | 15846 ft | 349 kts | 109° |
| 2026-04-26 06:51 | 33.64319 | -118.31052 | 16607 ft | 354 kts | 86° |
| 2026-04-26 06:52 | 33.64444 | -118.28069 | 17214 ft | 361 kts | 88° |
| 2026-04-26 06:52 | 33.64475 | -118.25092 | 17985 ft | 362 kts | 90° |
| 2026-04-26 06:52 | 33.64475 | -118.22062 | 18732 ft | 362 kts | 89° |
| 2026-04-26 06:52 | 33.64855 | -118.19082 | 19156 ft | 368 kts | 68° |
| 2026-04-26 06:53 | 33.66218 | -118.16471 | 19719 ft | 373 kts | 47° |
| 2026-04-26 06:53 | 33.68192 | -118.14464 | 20337 ft | 373 kts | 37° |
| 2026-04-26 06:53 | 33.70303 | -118.12601 | 20889 ft | 379 kts | 36° |
| 2026-04-26 06:53 | 33.72447 | -118.10727 | 21514 ft | 383 kts | 36° |
| 2026-04-26 06:54 | 33.74606 | -118.08834 | 22160 ft | 386 kts | 36° |
| 2026-04-26 06:54 | 33.76776 | -118.06917 | 22785 ft | 389 kts | 36° |
| 2026-04-26 06:54 | 33.78958 | -118.04971 | 23385 ft | 392 kts | 37° |
| 2026-04-26 06:54 | 33.81129 | -118.03026 | 23934 ft | 397 kts | 37° |
| 2026-04-26 06:55 | 33.83354 | -118.01030 | 24510 ft | 401 kts | 37° |
| 2026-04-26 06:55 | 33.85594 | -117.99013 | 25064 ft | 404 kts | 37° |
| 2026-04-26 06:55 | 33.87856 | -117.96977 | 25628 ft | 408 kts | 37° |
| 2026-04-26 06:55 | 33.90139 | -117.94923 | 26188 ft | 411 kts | 37° |
| 2026-04-26 06:56 | 33.92436 | -117.92841 | 26710 ft | 415 kts | 37° |
| 2026-04-26 06:56 | 33.94741 | -117.90734 | 27214 ft | 418 kts | 37° |
| 2026-04-26 06:56 | 33.97070 | -117.88599 | 27674 ft | 422 kts | 37° |
| 2026-04-26 06:56 | 33.99417 | -117.86451 | 28141 ft | 425 kts | 37° |
| 2026-04-26 06:57 | 34.01780 | -117.84288 | 28619 ft | 427 kts | 37° |
| 2026-04-26 06:57 | 34.04121 | -117.82144 | 29039 ft | 430 kts | 37° |
| 2026-04-26 06:57 | 34.06511 | -117.79954 | 29451 ft | 434 kts | 37° |
| 2026-04-26 06:57 | 34.08913 | -117.77724 | 29831 ft | 437 kts | 40° |
| 2026-04-26 06:58 | 34.11056 | -117.75129 | 30137 ft | 439 kts | 50° |
| 2026-04-26 06:58 | 34.12953 | -117.72219 | 30455 ft | 443 kts | 52° |
| 2026-04-26 06:58 | 34.14825 | -117.69261 | 30783 ft | 446 kts | 52° |
| 2026-04-26 06:58 | 34.16735 | -117.66282 | 31091 ft | 450 kts | 52° |
| 2026-04-26 06:59 | 34.18688 | -117.63303 | 31326 ft | 455 kts | 51° |
| 2026-04-26 06:59 | 34.20679 | -117.60317 | 31602 ft | 458 kts | 51° |
| 2026-04-26 06:59 | 34.22702 | -117.57305 | 31724 ft | 466 kts | 51° |
| 2026-04-26 06:59 | 34.24726 | -117.54299 | 32135 ft | 464 kts | 51° |
| 2026-04-26 07:00 | 34.26753 | -117.51285 | 32659 ft | 462 kts | 51° |
| 2026-04-26 07:00 | 34.28783 | -117.48262 | 32913 ft | 465 kts | 51° |
| 2026-04-26 07:00 | 34.30827 | -117.45210 | 33131 ft | 468 kts | 51° |
| 2026-04-26 07:00 | 34.32880 | -117.42142 | 33298 ft | 472 kts | 51° |
| 2026-04-26 07:01 | 34.34950 | -117.39048 | 33490 ft | 474 kts | 51° |
| 2026-04-26 07:01 | 34.37024 | -117.35944 | 33795 ft | 474 kts | 51° |
| 2026-04-26 07:01 | 34.39093 | -117.32847 | 34171 ft | 471 kts | 51° |
| 2026-04-26 07:01 | 34.41150 | -117.29763 | 34538 ft | 470 kts | 51° |
| 2026-04-26 07:02 | 34.43196 | -117.26692 | 34861 ft | 469 kts | 51° |
| 2026-04-26 07:02 | 34.45213 | -117.23660 | 35159 ft | 468 kts | 51° |
| 2026-04-26 07:02 | 34.47256 | -117.20588 | 35439 ft | 468 kts | 51° |
| 2026-04-26 07:02 | 34.49297 | -117.17520 | 35697 ft | 468 kts | 51° |
| 2026-04-26 07:03 | 34.51336 | -117.14450 | 35957 ft | 467 kts | 51° |
| 2026-04-26 07:03 | 34.53372 | -117.11384 | 36205 ft | 467 kts | 51° |
| 2026-04-26 07:03 | 34.55413 | -117.08324 | 36418 ft | 467 kts | 51° |
| 2026-04-26 07:03 | 34.57487 | -117.05285 | 36611 ft | 468 kts | 50° |
| 2026-04-26 07:04 | 34.59583 | -117.02248 | 36773 ft | 470 kts | 50° |
| 2026-04-26 07:04 | 34.61683 | -116.99212 | 37023 ft | 468 kts | 50° |
| 2026-04-26 07:04 | 34.63770 | -116.96188 | 37370 ft | 466 kts | 50° |
| 2026-04-26 07:04 | 34.65823 | -116.93204 | 37472 ft | 468 kts | 50° |
| 2026-04-26 07:05 | 34.70007 | -116.87090 | 37807 ft | 470 kts | 50° |
| 2026-04-26 07:05 | 34.72091 | -116.84040 | 38062 ft | 469 kts | 50° |
| 2026-04-26 07:05 | 34.74175 | -116.80991 | 38218 ft | 469 kts | 50° |
| 2026-04-26 07:06 | 34.76261 | -116.77932 | 38365 ft | 470 kts | 50° |
| 2026-04-26 07:06 | 34.78346 | -116.74869 | 38581 ft | 469 kts | 50° |
| 2026-04-26 07:06 | 34.80423 | -116.71816 | 38821 ft | 468 kts | 50° |
| 2026-04-26 07:06 | 34.82498 | -116.68764 | 38919 ft | 468 kts | 50° |
| 2026-04-26 07:07 | 34.86647 | -116.62697 | 38988 ft | 465 kts | 49° |
| 2026-04-26 07:07 | 34.90956 | -116.56906 | 39001 ft | 464 kts | 47° |
| 2026-04-26 07:08 | 34.95344 | -116.51153 | 39004 ft | 463 kts | 47° |
| 2026-04-26 07:08 | 34.99709 | -116.45368 | 39000 ft | 463 kts | 47° |
| 2026-04-26 07:09 | 35.04049 | -116.39558 | 39003 ft | 463 kts | 47° |
| 2026-04-26 07:09 | 35.08349 | -116.33776 | 39001 ft | 463 kts | 47° |
| 2026-04-26 07:11 | 35.19156 | -116.19200 | 39001 ft | 463 kts | 48° |
| 2026-04-26 07:11 | 35.23478 | -116.13359 | 38999 ft | 463 kts | 48° |
| 2026-04-26 07:12 | 35.27804 | -116.07502 | 38997 ft | 464 kts | 48° |
| 2026-04-26 07:12 | 35.32092 | -116.01685 | 39003 ft | 464 kts | 48° |
| 2026-04-26 07:13 | 35.36415 | -115.95817 | 39002 ft | 464 kts | 48° |
| 2026-04-26 07:13 | 35.40734 | -115.89928 | 39004 ft | 465 kts | 48° |
| 2026-04-26 07:14 | 35.45067 | -115.84011 | 38995 ft | 467 kts | 48° |
| 2026-04-26 07:14 | 35.49415 | -115.78066 | 39013 ft | 469 kts | 48° |
| 2026-04-26 07:15 | 35.53749 | -115.72131 | 39000 ft | 470 kts | 48° |
| 2026-04-26 07:15 | 35.58114 | -115.66144 | 39005 ft | 471 kts | 48° |
| 2026-04-26 07:16 | 35.62478 | -115.60146 | 39005 ft | 470 kts | 48° |
| 2026-04-26 07:16 | 35.66834 | -115.54148 | 39006 ft | 470 kts | 48° |
| 2026-04-26 07:17 | 35.71180 | -115.48154 | 38998 ft | 469 kts | 48° |
| 2026-04-26 07:17 | 35.75491 | -115.42195 | 39004 ft | 469 kts | 48° |
| 2026-04-26 07:18 | 35.79827 | -115.36193 | 39000 ft | 469 kts | 48° |
| 2026-04-26 07:18 | 35.84144 | -115.30211 | 38996 ft | 468 kts | 48° |
| 2026-04-26 07:19 | 35.88480 | -115.24188 | 38995 ft | 468 kts | 48° |
| 2026-04-26 07:19 | 35.92475 | -115.18625 | 39003 ft | 468 kts | 48° |
| 2026-04-26 07:20 | 35.97132 | -115.12131 | 38997 ft | 467 kts | 48° |
| 2026-04-26 07:20 | 36.01562 | -115.05946 | 39009 ft | 466 kts | 49° |
| 2026-04-26 07:21 | 36.05664 | -115.00207 | 39007 ft | 466 kts | 49° |
| 2026-04-26 07:21 | 36.09943 | -114.94207 | 39007 ft | 465 kts | 49° |
| 2026-04-26 07:22 | 36.14186 | -114.88251 | 38999 ft | 464 kts | 49° |
| 2026-04-26 07:22 | 36.18016 | -114.81850 | 38996 ft | 463 kts | 60° |
| 2026-04-26 07:23 | 36.20747 | -114.74648 | 39007 ft | 463 kts | 69° |
| 2026-04-26 07:23 | 36.22995 | -114.67178 | 39002 ft | 463 kts | 70° |
| 2026-04-26 07:24 | 36.25234 | -114.59689 | 39000 ft | 464 kts | 69° |
| 2026-04-26 07:24 | 36.27502 | -114.52200 | 39009 ft | 464 kts | 69° |
| 2026-04-26 07:25 | 36.29764 | -114.44758 | 39006 ft | 465 kts | 69° |
| 2026-04-26 07:25 | 36.32038 | -114.37265 | 39000 ft | 464 kts | 69° |
| 2026-04-26 07:26 | 36.34307 | -114.29764 | 39003 ft | 464 kts | 69° |
| 2026-04-26 07:26 | 36.36189 | -114.23524 | 38997 ft | 465 kts | 69° |
| 2026-04-26 07:27 | 36.38824 | -114.14771 | 39008 ft | 467 kts | 69° |
| 2026-04-26 07:27 | 36.41095 | -114.07204 | 39008 ft | 468 kts | 70° |
| 2026-04-26 07:28 | 36.42982 | -114.00905 | 39002 ft | 468 kts | 70° |
| 2026-04-26 07:28 | 36.45626 | -113.92041 | 38997 ft | 468 kts | 70° |
| 2026-04-26 07:29 | 36.47883 | -113.84449 | 38999 ft | 468 kts | 70° |
| 2026-04-26 07:29 | 36.50125 | -113.76908 | 39004 ft | 469 kts | 70° |
| 2026-04-26 07:30 | 36.52375 | -113.69303 | 39009 ft | 469 kts | 70° |
| 2026-04-26 07:30 | 36.54628 | -113.61681 | 38997 ft | 470 kts | 70° |
| 2026-04-26 07:31 | 36.56881 | -113.54027 | 39003 ft | 472 kts | 70° |
| 2026-04-26 07:31 | 36.59123 | -113.46387 | 39009 ft | 474 kts | 70° |
| 2026-04-26 07:32 | 36.61382 | -113.38676 | 39009 ft | 474 kts | 70° |
| 2026-04-26 07:32 | 36.63632 | -113.30958 | 38999 ft | 474 kts | 70° |
| 2026-04-26 07:33 | 36.65487 | -113.24543 | 39005 ft | 473 kts | 70° |
| 2026-04-26 07:33 | 36.68086 | -113.15520 | 38994 ft | 473 kts | 70° |
| 2026-04-26 07:34 | 36.70286 | -113.07861 | 39002 ft | 473 kts | 70° |
| 2026-04-26 07:34 | 36.72497 | -113.00146 | 39002 ft | 472 kts | 70° |
| 2026-04-26 07:35 | 36.74700 | -112.92436 | 39001 ft | 472 kts | 70° |
| 2026-04-26 07:35 | 36.76898 | -112.84723 | 39011 ft | 472 kts | 70° |
| 2026-04-26 07:36 | 36.79077 | -112.77060 | 39004 ft | 472 kts | 70° |
| 2026-04-26 07:36 | 36.81265 | -112.69339 | 39003 ft | 472 kts | 70° |
| 2026-04-26 07:37 | 36.83445 | -112.61623 | 39005 ft | 471 kts | 70° |
| 2026-04-26 07:37 | 36.85619 | -112.53907 | 38997 ft | 471 kts | 71° |
| 2026-04-26 07:38 | 36.87772 | -112.46241 | 39010 ft | 471 kts | 70° |
| 2026-04-26 07:38 | 36.89940 | -112.38525 | 38998 ft | 470 kts | 70° |
| 2026-04-26 07:39 | 36.92105 | -112.30806 | 38999 ft | 471 kts | 71° |
| 2026-04-26 07:39 | 36.94270 | -112.23082 | 39001 ft | 471 kts | 71° |
| 2026-04-26 07:40 | 36.96436 | -112.15331 | 39001 ft | 473 kts | 71° |
| 2026-04-26 07:40 | 36.98586 | -112.07608 | 39008 ft | 474 kts | 71° |
| 2026-04-26 07:41 | 37.00757 | -111.99803 | 39005 ft | 475 kts | 71° |
| 2026-04-26 07:41 | 37.02915 | -111.92000 | 39005 ft | 474 kts | 71° |
| 2026-04-26 07:42 | 37.05065 | -111.84202 | 39001 ft | 473 kts | 71° |
| 2026-04-26 07:42 | 37.07208 | -111.76415 | 39007 ft | 473 kts | 71° |
| 2026-04-26 07:43 | 37.09327 | -111.68697 | 39001 ft | 472 kts | 71° |
| 2026-04-26 07:43 | 37.11452 | -111.60927 | 38998 ft | 471 kts | 71° |
| 2026-04-26 07:44 | 37.13570 | -111.53163 | 39004 ft | 471 kts | 71° |
| 2026-04-26 07:44 | 37.15682 | -111.45401 | 39001 ft | 470 kts | 71° |
| 2026-04-26 07:45 | 37.17775 | -111.37684 | 39002 ft | 471 kts | 71° |
| 2026-04-26 07:45 | 37.19873 | -111.29922 | 38999 ft | 470 kts | 71° |
| 2026-04-26 07:46 | 37.21970 | -111.22148 | 38998 ft | 470 kts | 71° |
| 2026-04-26 07:46 | 37.24058 | -111.14372 | 39007 ft | 470 kts | 71° |
| 2026-04-26 07:47 | 37.26146 | -111.06578 | 39000 ft | 473 kts | 71° |
| 2026-04-26 07:47 | 37.28225 | -110.98795 | 39012 ft | 473 kts | 71° |
| 2026-04-26 07:48 | 37.30313 | -110.90958 | 39004 ft | 473 kts | 71° |
| 2026-04-26 07:48 | 37.32391 | -110.83121 | 39000 ft | 472 kts | 71° |
| 2026-04-26 07:49 | 37.34460 | -110.75294 | 39003 ft | 472 kts | 71° |
| 2026-04-26 07:49 | 37.36523 | -110.67474 | 38997 ft | 471 kts | 71° |
| 2026-04-26 07:50 | 37.39589 | -110.55817 | 39001 ft | 470 kts | 72° |
| 2026-04-26 07:50 | 37.41636 | -110.47999 | 38995 ft | 470 kts | 72° |
| 2026-04-26 07:51 | 37.43675 | -110.40184 | 39001 ft | 471 kts | 72° |
| 2026-04-26 07:51 | 37.45715 | -110.32341 | 39000 ft | 472 kts | 72° |
| 2026-04-26 07:52 | 37.47740 | -110.24536 | 39005 ft | 473 kts | 72° |
| 2026-04-26 07:52 | 37.49782 | -110.16650 | 39006 ft | 474 kts | 72° |
| 2026-04-26 07:53 | 37.51818 | -110.08747 | 38999 ft | 474 kts | 72° |
| 2026-04-26 07:53 | 37.53847 | -110.00842 | 38998 ft | 475 kts | 72° |
| 2026-04-26 07:54 | 37.55864 | -109.92971 | 39000 ft | 475 kts | 72° |
| 2026-04-26 07:54 | 37.57892 | -109.85031 | 39006 ft | 476 kts | 72° |
| 2026-04-26 07:55 | 37.59919 | -109.77068 | 39009 ft | 477 kts | 72° |
| 2026-04-26 07:55 | 37.61940 | -109.69102 | 38997 ft | 477 kts | 72° |
| 2026-04-26 07:56 | 37.63942 | -109.61187 | 39002 ft | 477 kts | 72° |
| 2026-04-26 07:56 | 37.65952 | -109.53211 | 38999 ft | 477 kts | 72° |
| 2026-04-26 07:57 | 37.67957 | -109.45233 | 39001 ft | 477 kts | 72° |
| 2026-04-26 07:57 | 37.69955 | -109.37267 | 38998 ft | 476 kts | 72° |
| 2026-04-26 07:58 | 37.71943 | -109.29297 | 39007 ft | 475 kts | 72° |
| 2026-04-26 07:58 | 37.73912 | -109.21391 | 39001 ft | 475 kts | 72° |
| 2026-04-26 07:59 | 37.75889 | -109.13419 | 39002 ft | 475 kts | 72° |
| 2026-04-26 07:59 | 37.77859 | -109.05452 | 39007 ft | 475 kts | 72° |
| 2026-04-26 08:00 | 37.79492 | -108.98833 | 38998 ft | 474 kts | 72° |
| 2026-04-26 08:00 | 37.82007 | -108.89676 | 39004 ft | 474 kts | 66° |
| 2026-04-26 08:01 | 37.84698 | -108.82050 | 39004 ft | 475 kts | 65° |
| 2026-04-26 08:01 | 37.87423 | -108.74409 | 38998 ft | 477 kts | 66° |
| 2026-04-26 08:02 | 37.89669 | -108.68025 | 39006 ft | 478 kts | 66° |
| 2026-04-26 08:02 | 37.92350 | -108.60328 | 39001 ft | 478 kts | 66° |
| 2026-04-26 08:03 | 37.95457 | -108.51364 | 38999 ft | 478 kts | 66° |
| 2026-04-26 08:03 | 37.97673 | -108.44944 | 38996 ft | 478 kts | 66° |
| 2026-04-26 08:04 | 38.00337 | -108.37217 | 38999 ft | 479 kts | 66° |
| 2026-04-26 08:04 | 38.03001 | -108.29476 | 39002 ft | 479 kts | 66° |
| 2026-04-26 08:05 | 38.05661 | -108.21731 | 39000 ft | 479 kts | 66° |
| 2026-04-26 08:05 | 38.08315 | -108.13971 | 38999 ft | 480 kts | 66° |
| 2026-04-26 08:06 | 38.10950 | -108.06253 | 38999 ft | 480 kts | 66° |
| 2026-04-26 08:06 | 38.13599 | -107.98473 | 39002 ft | 480 kts | 66° |
| 2026-04-26 08:07 | 38.16245 | -107.90676 | 38998 ft | 480 kts | 66° |
| 2026-04-26 08:07 | 38.18887 | -107.82878 | 38997 ft | 481 kts | 66° |
| 2026-04-26 08:08 | 38.21505 | -107.75127 | 39003 ft | 480 kts | 67° |
| 2026-04-26 08:08 | 38.24132 | -107.67326 | 39002 ft | 479 kts | 67° |
| 2026-04-26 08:09 | 38.26755 | -107.59517 | 38989 ft | 480 kts | 67° |
| 2026-04-26 08:09 | 38.29375 | -107.51698 | 39003 ft | 481 kts | 67° |
| 2026-04-26 08:10 | 38.31976 | -107.43917 | 39003 ft | 481 kts | 67° |
| 2026-04-26 08:10 | 38.34590 | -107.36066 | 38999 ft | 482 kts | 67° |
| 2026-04-26 08:11 | 38.37206 | -107.28199 | 39010 ft | 482 kts | 67° |
| 2026-04-26 08:11 | 38.39812 | -107.20332 | 39000 ft | 481 kts | 67° |
| 2026-04-26 08:12 | 38.42392 | -107.12523 | 38999 ft | 481 kts | 67° |
| 2026-04-26 08:12 | 38.44986 | -107.04658 | 39006 ft | 481 kts | 67° |
| 2026-04-26 08:13 | 38.47485 | -106.96745 | 39006 ft | 480 kts | 69° |
| 2026-04-26 08:13 | 38.49886 | -106.88789 | 39005 ft | 480 kts | 69° |
| 2026-04-26 08:14 | 38.52281 | -106.80839 | 39000 ft | 479 kts | 69° |
| 2026-04-26 08:14 | 38.54670 | -106.72944 | 39000 ft | 480 kts | 69° |
| 2026-04-26 08:15 | 38.57077 | -106.64999 | 39000 ft | 480 kts | 69° |
| 2026-04-26 08:15 | 38.59483 | -106.57034 | 39003 ft | 481 kts | 69° |
| 2026-04-26 08:16 | 38.61887 | -106.49050 | 39002 ft | 481 kts | 69° |
| 2026-04-26 08:16 | 38.64274 | -106.41097 | 38995 ft | 484 kts | 69° |
| 2026-04-26 08:17 | 38.66680 | -106.33049 | 39002 ft | 485 kts | 69° |
| 2026-04-26 08:17 | 38.69099 | -106.24954 | 39005 ft | 488 kts | 69° |
| 2026-04-26 08:18 | 38.71517 | -106.16828 | 39013 ft | 488 kts | 69° |
| 2026-04-26 08:18 | 38.73903 | -106.08776 | 39001 ft | 485 kts | 69° |
| 2026-04-26 08:19 | 38.76285 | -106.00714 | 38992 ft | 482 kts | 69° |
| 2026-04-26 08:19 | 38.78652 | -105.92689 | 38999 ft | 480 kts | 69° |
| 2026-04-26 08:20 | 38.81005 | -105.84685 | 39000 ft | 479 kts | 69° |
| 2026-04-26 08:20 | 38.83348 | -105.76694 | 39002 ft | 479 kts | 69° |
| 2026-04-26 08:21 | 38.85668 | -105.68752 | 39002 ft | 479 kts | 69° |
| 2026-04-26 08:21 | 38.87999 | -105.60749 | 39002 ft | 479 kts | 69° |
| 2026-04-26 08:22 | 38.90330 | -105.52731 | 38999 ft | 480 kts | 69° |
| 2026-04-26 08:22 | 38.92655 | -105.44703 | 39002 ft | 480 kts | 70° |
| 2026-04-26 08:23 | 38.94960 | -105.36717 | 39000 ft | 480 kts | 70° |
| 2026-04-26 08:23 | 38.97273 | -105.28682 | 39000 ft | 479 kts | 70° |
| 2026-04-26 08:24 | 38.99574 | -105.20656 | 39001 ft | 480 kts | 70° |
| 2026-04-26 08:24 | 39.01883 | -105.12590 | 39006 ft | 480 kts | 70° |
| 2026-04-26 08:25 | 39.04186 | -105.04517 | 39001 ft | 481 kts | 70° |
| 2026-04-26 08:25 | 39.06466 | -104.96487 | 39001 ft | 481 kts | 70° |
| 2026-04-26 08:26 | 39.08762 | -104.88394 | 39008 ft | 481 kts | 70° |
| 2026-04-26 08:26 | 39.11046 | -104.80313 | 39005 ft | 480 kts | 70° |
| 2026-04-26 08:27 | 39.13317 | -104.72243 | 38998 ft | 479 kts | 70° |
| 2026-04-26 08:27 | 39.15566 | -104.64243 | 38999 ft | 478 kts | 70° |
| 2026-04-26 08:28 | 39.17821 | -104.56196 | 38999 ft | 477 kts | 70° |
| 2026-04-26 08:28 | 39.20069 | -104.48142 | 39003 ft | 477 kts | 70° |
| 2026-04-26 08:29 | 39.22306 | -104.40097 | 39005 ft | 476 kts | 70° |
| 2026-04-26 08:29 | 39.24534 | -104.32063 | 39001 ft | 475 kts | 70° |
| 2026-04-26 08:30 | 39.26740 | -104.24088 | 38997 ft | 475 kts | 70° |
| 2026-04-26 08:30 | 39.28950 | -104.16062 | 38997 ft | 474 kts | 70° |
| 2026-04-26 08:31 | 39.31156 | -104.08038 | 39003 ft | 474 kts | 70° |
| 2026-04-26 08:31 | 39.33355 | -104.00014 | 39004 ft | 474 kts | 70° |
| 2026-04-26 08:32 | 39.35535 | -103.92037 | 39001 ft | 474 kts | 70° |
| 2026-04-26 08:32 | 39.37718 | -103.84024 | 38994 ft | 473 kts | 70° |
| 2026-04-26 08:33 | 39.39898 | -103.75994 | 39003 ft | 473 kts | 71° |
| 2026-04-26 08:33 | 39.42067 | -103.67964 | 38996 ft | 473 kts | 71° |
| 2026-04-26 08:34 | 39.44235 | -103.59928 | 39002 ft | 473 kts | 71° |
| 2026-04-26 08:34 | 39.46381 | -103.51942 | 39004 ft | 473 kts | 71° |
| 2026-04-26 08:35 | 39.48539 | -103.43888 | 39002 ft | 473 kts | 71° |
| 2026-04-26 08:35 | 39.50692 | -103.35832 | 38997 ft | 473 kts | 71° |
| 2026-04-26 08:36 | 39.52837 | -103.27779 | 38998 ft | 473 kts | 71° |
| 2026-04-26 08:36 | 39.54976 | -103.19719 | 39003 ft | 473 kts | 71° |
| 2026-04-26 08:37 | 39.57094 | -103.11714 | 38994 ft | 473 kts | 71° |
| 2026-04-26 08:37 | 39.59218 | -103.03656 | 39000 ft | 472 kts | 71° |
| 2026-04-26 08:38 | 39.61335 | -102.95601 | 39002 ft | 472 kts | 71° |
| 2026-04-26 08:38 | 39.63447 | -102.87541 | 38998 ft | 472 kts | 71° |
| 2026-04-26 08:39 | 39.65535 | -102.79536 | 38997 ft | 472 kts | 71° |
| 2026-04-26 08:39 | 39.67635 | -102.71472 | 38999 ft | 471 kts | 71° |
| 2026-04-26 08:40 | 39.69725 | -102.63412 | 38999 ft | 471 kts | 71° |
| 2026-04-26 08:40 | 39.71809 | -102.55357 | 38999 ft | 470 kts | 71° |
| 2026-04-26 08:41 | 39.73875 | -102.47352 | 39002 ft | 470 kts | 71° |
| 2026-04-26 08:41 | 39.75945 | -102.39289 | 38998 ft | 470 kts | 71° |
| 2026-04-26 08:42 | 39.78007 | -102.31228 | 39003 ft | 470 kts | 71° |
| 2026-04-26 08:42 | 39.80067 | -102.23167 | 39001 ft | 470 kts | 71° |
| 2026-04-26 08:43 | 39.82106 | -102.15159 | 38998 ft | 470 kts | 72° |
| 2026-04-26 08:43 | 39.84152 | -102.07085 | 38999 ft | 470 kts | 72° |
| 2026-04-26 08:44 | 39.86192 | -101.99017 | 39008 ft | 469 kts | 72° |
| 2026-04-26 08:44 | 39.88226 | -101.90938 | 38998 ft | 470 kts | 72° |
| 2026-04-26 08:45 | 39.90255 | -101.82854 | 39002 ft | 470 kts | 72° |
| 2026-04-26 08:45 | 39.92266 | -101.74819 | 39000 ft | 470 kts | 72° |
| 2026-04-26 08:46 | 39.94285 | -101.66723 | 38999 ft | 470 kts | 72° |
| 2026-04-26 08:46 | 39.96295 | -101.58629 | 39002 ft | 469 kts | 72° |
| 2026-04-26 08:47 | 39.98298 | -101.50539 | 39004 ft | 469 kts | 72° |
| 2026-04-26 08:47 | 40.00283 | -101.42498 | 39003 ft | 469 kts | 72° |
| 2026-04-26 08:48 | 40.02273 | -101.34407 | 39001 ft | 468 kts | 72° |
| 2026-04-26 08:48 | 40.04256 | -101.26314 | 39008 ft | 469 kts | 72° |
| 2026-04-26 08:49 | 40.06237 | -101.18209 | 39001 ft | 468 kts | 72° |
| 2026-04-26 08:49 | 40.08196 | -101.10166 | 38997 ft | 468 kts | 72° |
| 2026-04-26 08:50 | 40.10162 | -101.02062 | 38997 ft | 468 kts | 72° |
| 2026-04-26 08:50 | 40.12120 | -100.93962 | 39001 ft | 468 kts | 72° |
| 2026-04-26 08:51 | 40.15049 | -100.81795 | 38997 ft | 468 kts | 72° |
| 2026-04-26 08:52 | 40.16981 | -100.73735 | 39000 ft | 468 kts | 72° |
| 2026-04-26 08:52 | 40.18919 | -100.65622 | 39005 ft | 467 kts | 72° |
| 2026-04-26 08:53 | 40.20845 | -100.57507 | 39004 ft | 467 kts | 73° |
| 2026-04-26 08:53 | 40.22670 | -100.49350 | 39004 ft | 467 kts | 74° |
| 2026-04-26 08:54 | 40.24455 | -100.41166 | 39010 ft | 468 kts | 74° |
| 2026-04-26 08:54 | 40.26227 | -100.33040 | 39001 ft | 467 kts | 74° |
| 2026-04-26 08:55 | 40.28017 | -100.24868 | 39001 ft | 467 kts | 74° |
| 2026-04-26 08:55 | 40.29803 | -100.16691 | 39000 ft | 467 kts | 74° |
| 2026-04-26 08:56 | 40.31583 | -100.08510 | 39010 ft | 467 kts | 74° |
| 2026-04-26 08:56 | 40.33346 | -100.00384 | 38999 ft | 467 kts | 74° |
| 2026-04-26 08:57 | 40.35115 | -99.92201 | 39009 ft | 467 kts | 74° |
| 2026-04-26 08:57 | 40.36876 | -99.84009 | 38997 ft | 467 kts | 74° |
| 2026-04-26 08:58 | 40.38631 | -99.75820 | 38996 ft | 466 kts | 74° |
| 2026-04-26 08:58 | 40.40380 | -99.67632 | 39002 ft | 466 kts | 74° |
| 2026-04-26 08:59 | 40.42112 | -99.59485 | 39000 ft | 467 kts | 74° |
| 2026-04-26 08:59 | 40.43851 | -99.51279 | 38996 ft | 467 kts | 74° |
| 2026-04-26 09:00 | 40.45583 | -99.43067 | 38999 ft | 467 kts | 75° |
| 2026-04-26 09:00 | 40.47311 | -99.34851 | 38999 ft | 467 kts | 75° |
| 2026-04-26 09:01 | 40.49023 | -99.26677 | 39000 ft | 467 kts | 75° |
| 2026-04-26 09:01 | 40.50741 | -99.18448 | 38997 ft | 467 kts | 75° |
| 2026-04-26 09:02 | 40.52451 | -99.10222 | 38999 ft | 467 kts | 75° |
| 2026-04-26 09:02 | 40.54155 | -99.01986 | 39003 ft | 467 kts | 75° |
| 2026-04-26 09:03 | 40.55841 | -98.93807 | 39006 ft | 466 kts | 75° |
| 2026-04-26 09:03 | 40.57529 | -98.85573 | 39003 ft | 467 kts | 75° |
| 2026-04-26 09:04 | 40.59216 | -98.77328 | 38999 ft | 467 kts | 75° |
| 2026-04-26 09:04 | 40.60900 | -98.69072 | 39005 ft | 467 kts | 75° |
| 2026-04-26 09:05 | 40.62575 | -98.60818 | 38995 ft | 467 kts | 75° |
| 2026-04-26 09:05 | 40.64235 | -98.52609 | 39007 ft | 467 kts | 75° |
| 2026-04-26 09:06 | 40.65899 | -98.44340 | 38996 ft | 467 kts | 75° |
| 2026-04-26 09:06 | 40.67555 | -98.36076 | 38996 ft | 466 kts | 75° |
| 2026-04-26 09:07 | 40.69206 | -98.27814 | 39001 ft | 467 kts | 75° |
| 2026-04-26 09:07 | 40.70839 | -98.19602 | 39004 ft | 466 kts | 75° |
| 2026-04-26 09:08 | 40.72479 | -98.11334 | 38999 ft | 466 kts | 75° |
| 2026-04-26 09:08 | 40.74109 | -98.03069 | 39003 ft | 466 kts | 75° |
| 2026-04-26 09:09 | 40.75729 | -97.94807 | 38999 ft | 465 kts | 75° |
| 2026-04-26 09:09 | 40.77345 | -97.86548 | 38996 ft | 465 kts | 75° |
| 2026-04-26 09:10 | 40.78943 | -97.78346 | 38999 ft | 464 kts | 76° |
| 2026-04-26 09:10 | 40.80546 | -97.70088 | 39001 ft | 465 kts | 76° |
| 2026-04-26 09:11 | 40.82141 | -97.61829 | 38997 ft | 464 kts | 76° |
| 2026-04-26 09:11 | 40.83732 | -97.53563 | 39003 ft | 464 kts | 76° |
| 2026-04-26 09:12 | 40.85305 | -97.45355 | 39000 ft | 464 kts | 76° |
| 2026-04-26 09:12 | 40.86886 | -97.37081 | 39001 ft | 465 kts | 76° |
| 2026-04-26 09:13 | 40.88458 | -97.28798 | 39007 ft | 465 kts | 76° |
| 2026-04-26 09:13 | 40.90028 | -97.20504 | 38998 ft | 465 kts | 76° |
| 2026-04-26 09:14 | 40.91580 | -97.12271 | 39002 ft | 465 kts | 76° |
| 2026-04-26 09:14 | 40.93135 | -97.03969 | 39003 ft | 465 kts | 76° |
| 2026-04-26 09:15 | 40.94687 | -96.95663 | 39003 ft | 465 kts | 76° |
| 2026-04-26 09:15 | 40.96232 | -96.87348 | 38999 ft | 465 kts | 76° |
| 2026-04-26 09:16 | 40.97773 | -96.79035 | 38997 ft | 465 kts | 76° |
| 2026-04-26 09:16 | 40.99294 | -96.70783 | 39001 ft | 464 kts | 76° |
| 2026-04-26 09:17 | 41.00819 | -96.62477 | 39002 ft | 465 kts | 76° |
| 2026-04-26 09:17 | 41.02339 | -96.54161 | 38996 ft | 465 kts | 76° |
| 2026-04-26 09:18 | 41.03852 | -96.45845 | 38999 ft | 464 kts | 76° |
| 2026-04-26 09:18 | 41.05348 | -96.37584 | 38997 ft | 464 kts | 76° |
| 2026-04-26 09:19 | 41.06849 | -96.29266 | 39000 ft | 464 kts | 76° |
| 2026-04-26 09:19 | 41.08343 | -96.20945 | 38996 ft | 464 kts | 77° |
| 2026-04-26 09:20 | 41.09832 | -96.12621 | 39004 ft | 464 kts | 77° |
| 2026-04-26 09:20 | 41.11312 | -96.04299 | 38998 ft | 464 kts | 77° |
| 2026-04-26 09:21 | 41.12777 | -95.96025 | 39000 ft | 464 kts | 77° |
| 2026-04-26 09:21 | 41.14248 | -95.87691 | 38996 ft | 464 kts | 77° |
| 2026-04-26 09:22 | 41.15713 | -95.79352 | 38999 ft | 464 kts | 77° |
| 2026-04-26 09:22 | 41.17149 | -95.71006 | 38999 ft | 464 kts | 78° |
| 2026-04-26 09:23 | 41.18326 | -95.62642 | 39009 ft | 464 kts | 80° |
| 2026-04-26 09:23 | 41.19434 | -95.54197 | 38999 ft | 464 kts | 80° |
| 2026-04-26 09:24 | 41.20561 | -95.45756 | 39008 ft | 464 kts | 80° |
| 2026-04-26 09:24 | 41.21709 | -95.37313 | 39007 ft | 464 kts | 79° |
| 2026-04-26 09:25 | 41.22846 | -95.28930 | 39000 ft | 464 kts | 80° |
| 2026-04-26 09:25 | 41.23987 | -95.20486 | 39000 ft | 464 kts | 80° |
| 2026-04-26 09:26 | 41.25119 | -95.12042 | 39001 ft | 464 kts | 80° |
| 2026-04-26 09:26 | 41.26246 | -95.03593 | 39007 ft | 464 kts | 80° |
| 2026-04-26 09:27 | 41.27357 | -94.95210 | 39001 ft | 464 kts | 80° |
| 2026-04-26 09:27 | 41.28472 | -94.86752 | 38997 ft | 464 kts | 80° |
| 2026-04-26 09:28 | 41.29578 | -94.78291 | 38997 ft | 464 kts | 80° |
| 2026-04-26 09:28 | 41.30682 | -94.69832 | 39007 ft | 465 kts | 80° |
| 2026-04-26 09:29 | 41.31770 | -94.61423 | 38996 ft | 465 kts | 80° |
| 2026-04-26 09:29 | 41.32860 | -94.52950 | 38998 ft | 465 kts | 80° |
| 2026-04-26 09:30 | 41.33943 | -94.44474 | 38996 ft | 465 kts | 80° |
| 2026-04-26 09:30 | 41.35021 | -94.35995 | 38996 ft | 464 kts | 80° |
| 2026-04-26 09:31 | 41.36082 | -94.27580 | 39003 ft | 464 kts | 81° |
| 2026-04-26 09:31 | 41.37149 | -94.19097 | 39002 ft | 464 kts | 81° |
| 2026-04-26 09:32 | 41.38208 | -94.10622 | 39006 ft | 464 kts | 81° |
| 2026-04-26 09:32 | 41.39260 | -94.02145 | 39001 ft | 464 kts | 81° |
| 2026-04-26 09:33 | 41.40304 | -93.93663 | 38994 ft | 464 kts | 81° |
| 2026-04-26 09:33 | 41.41336 | -93.85239 | 39004 ft | 464 kts | 81° |
| 2026-04-26 09:34 | 41.42369 | -93.76758 | 39008 ft | 464 kts | 81° |
| 2026-04-26 09:34 | 41.43394 | -93.68280 | 39004 ft | 463 kts | 81° |
| 2026-04-26 09:35 | 41.44359 | -93.59793 | 39000 ft | 463 kts | 82° |
| 2026-04-26 09:35 | 41.45169 | -93.51338 | 38999 ft | 463 kts | 83° |
| 2026-04-26 09:36 | 41.45960 | -93.42818 | 39005 ft | 463 kts | 83° |
| 2026-04-26 09:36 | 41.46761 | -93.34303 | 39008 ft | 463 kts | 83° |
| 2026-04-26 09:37 | 41.47570 | -93.25779 | 39000 ft | 463 kts | 83° |
| 2026-04-26 09:37 | 41.48368 | -93.17321 | 38993 ft | 463 kts | 83° |
| 2026-04-26 09:38 | 41.49166 | -93.08791 | 39004 ft | 463 kts | 83° |
| 2026-04-26 09:38 | 41.49958 | -93.00262 | 39003 ft | 463 kts | 83° |
| 2026-04-26 09:39 | 41.50742 | -92.91727 | 38997 ft | 464 kts | 83° |
| 2026-04-26 09:39 | 41.51516 | -92.83245 | 39007 ft | 463 kts | 83° |
| 2026-04-26 09:40 | 41.52288 | -92.74713 | 39007 ft | 463 kts | 83° |
| 2026-04-26 09:40 | 41.53055 | -92.66174 | 39005 ft | 464 kts | 83° |
| 2026-04-26 09:41 | 41.53815 | -92.57630 | 39001 ft | 463 kts | 83° |
| 2026-04-26 09:41 | 41.54569 | -92.49091 | 39001 ft | 463 kts | 83° |
| 2026-04-26 09:42 | 41.55311 | -92.40602 | 38998 ft | 464 kts | 83° |
| 2026-04-26 09:42 | 41.56052 | -92.32049 | 39008 ft | 464 kts | 83° |
| 2026-04-26 09:43 | 41.56786 | -92.23502 | 38998 ft | 464 kts | 83° |
| 2026-04-26 09:43 | 41.57515 | -92.14952 | 38999 ft | 463 kts | 83° |
| 2026-04-26 09:44 | 41.58229 | -92.06474 | 38998 ft | 463 kts | 83° |
| 2026-04-26 09:44 | 41.58945 | -91.97925 | 39000 ft | 463 kts | 83° |
| 2026-04-26 09:45 | 41.59653 | -91.89372 | 39008 ft | 464 kts | 84° |
| 2026-04-26 09:45 | 41.60355 | -91.80810 | 39008 ft | 464 kts | 84° |
| 2026-04-26 09:46 | 41.61052 | -91.72245 | 39004 ft | 464 kts | 84° |
| 2026-04-26 09:46 | 41.61738 | -91.63742 | 39008 ft | 463 kts | 84° |
| 2026-04-26 09:47 | 41.62423 | -91.55180 | 38997 ft | 463 kts | 84° |
| 2026-04-26 09:47 | 41.63100 | -91.46625 | 39002 ft | 463 kts | 84° |
| 2026-04-26 09:48 | 41.63766 | -91.38122 | 39001 ft | 463 kts | 84° |
| 2026-04-26 09:48 | 41.64430 | -91.29561 | 39006 ft | 463 kts | 84° |
| 2026-04-26 09:49 | 41.65088 | -91.21002 | 39002 ft | 463 kts | 84° |
| 2026-04-26 09:49 | 41.65740 | -91.12437 | 38999 ft | 463 kts | 84° |
| 2026-04-26 09:50 | 41.66385 | -91.03871 | 39006 ft | 463 kts | 84° |
| 2026-04-26 09:50 | 41.67020 | -90.95356 | 38999 ft | 463 kts | 84° |
| 2026-04-26 09:51 | 41.67652 | -90.86781 | 39005 ft | 463 kts | 84° |
| 2026-04-26 09:51 | 41.68279 | -90.78205 | 38997 ft | 463 kts | 84° |
| 2026-04-26 09:52 | 41.68899 | -90.69623 | 38998 ft | 463 kts | 84° |
| 2026-04-26 09:52 | 41.69811 | -90.56810 | 39006 ft | 464 kts | 84° |
| 2026-04-26 09:53 | 41.70416 | -90.48221 | 39003 ft | 463 kts | 84° |
| 2026-04-26 09:53 | 41.71015 | -90.39637 | 38997 ft | 463 kts | 84° |
| 2026-04-26 09:54 | 41.71606 | -90.31054 | 39001 ft | 463 kts | 85° |
| 2026-04-26 09:54 | 41.72187 | -90.22528 | 39007 ft | 463 kts | 85° |
| 2026-04-26 09:55 | 41.72768 | -90.13945 | 39008 ft | 463 kts | 85° |
| 2026-04-26 09:55 | 41.73340 | -90.05353 | 39007 ft | 463 kts | 85° |
| 2026-04-26 09:56 | 41.73905 | -89.96758 | 39001 ft | 463 kts | 85° |
| 2026-04-26 09:56 | 41.74461 | -89.88228 | 39004 ft | 463 kts | 85° |
| 2026-04-26 09:57 | 41.75012 | -89.79638 | 39002 ft | 463 kts | 85° |
| 2026-04-26 09:57 | 41.75558 | -89.71046 | 39006 ft | 463 kts | 85° |
| 2026-04-26 09:58 | 41.76099 | -89.62458 | 38995 ft | 463 kts | 85° |
| 2026-04-26 09:58 | 41.76632 | -89.53870 | 39001 ft | 463 kts | 85° |
| 2026-04-26 09:59 | 41.77072 | -89.46732 | 39001 ft | 463 kts | 85° |
| 2026-04-26 09:59 | 41.77675 | -89.36753 | 39000 ft | 463 kts | 85° |
| 2026-04-26 10:00 | 41.78188 | -89.28154 | 39000 ft | 463 kts | 85° |
| 2026-04-26 10:00 | 41.78698 | -89.19560 | 38999 ft | 463 kts | 85° |
| 2026-04-26 10:01 | 41.79197 | -89.11017 | 39008 ft | 463 kts | 85° |
| 2026-04-26 10:01 | 41.79693 | -89.02408 | 39008 ft | 463 kts | 85° |
| 2026-04-26 10:02 | 41.80181 | -88.93793 | 39005 ft | 463 kts | 85° |
| 2026-04-26 10:02 | 41.80664 | -88.85183 | 39003 ft | 463 kts | 85° |
| 2026-04-26 10:03 | 41.81137 | -88.76630 | 38996 ft | 463 kts | 86° |
| 2026-04-26 10:03 | 41.81607 | -88.68016 | 39007 ft | 463 kts | 86° |
| 2026-04-26 10:04 | 41.82071 | -88.59408 | 38998 ft | 463 kts | 86° |
| 2026-04-26 10:04 | 41.82527 | -88.50798 | 38999 ft | 464 kts | 86° |
| 2026-04-26 10:05 | 41.82753 | -88.46474 | 39130 ft | 465 kts | 86° |
| 2026-04-26 10:05 | 41.82976 | -88.42211 | 39355 ft | 464 kts | 86° |
| 2026-04-26 10:05 | 41.83199 | -88.37899 | 39600 ft | 463 kts | 86° |
| 2026-04-26 10:05 | 41.83420 | -88.33597 | 39834 ft | 462 kts | 86° |
| 2026-04-26 10:06 | 41.83639 | -88.29301 | 40020 ft | 462 kts | 86° |
| 2026-04-26 10:06 | 41.83856 | -88.24999 | 40193 ft | 462 kts | 86° |
| 2026-04-26 10:06 | 41.84072 | -88.20698 | 40359 ft | 463 kts | 86° |
| 2026-04-26 10:06 | 41.84287 | -88.16394 | 40544 ft | 462 kts | 86° |
| 2026-04-26 10:07 | 41.84496 | -88.12151 | 40703 ft | 462 kts | 86° |
| 2026-04-26 10:07 | 41.84708 | -88.07848 | 40856 ft | 462 kts | 86° |
| 2026-04-26 10:07 | 41.85126 | -87.99234 | 40975 ft | 463 kts | 86° |
| 2026-04-26 10:08 | 41.85538 | -87.90616 | 40994 ft | 463 kts | 86° |
| 2026-04-26 10:08 | 41.85943 | -87.81995 | 41003 ft | 462 kts | 86° |
| 2026-04-26 10:09 | 41.86338 | -87.73454 | 41000 ft | 462 kts | 86° |
| 2026-04-26 10:09 | 41.86730 | -87.64851 | 41003 ft | 462 kts | 86° |
| 2026-04-26 10:10 | 41.87115 | -87.56254 | 41001 ft | 461 kts | 86° |
| 2026-04-26 10:10 | 41.87493 | -87.47662 | 41000 ft | 461 kts | 86° |
| 2026-04-26 10:11 | 41.87862 | -87.39128 | 41003 ft | 461 kts | 86° |
| 2026-04-26 10:11 | 41.88228 | -87.30538 | 41003 ft | 461 kts | 86° |
| 2026-04-26 10:12 | 41.88587 | -87.21941 | 41003 ft | 461 kts | 86° |
| 2026-04-26 10:12 | 41.88937 | -87.13403 | 41003 ft | 462 kts | 87° |
| 2026-04-26 10:13 | 41.89284 | -87.04801 | 40999 ft | 462 kts | 87° |
| 2026-04-26 10:13 | 41.89624 | -86.96193 | 41001 ft | 462 kts | 87° |
| 2026-04-26 10:14 | 41.89958 | -86.87578 | 41002 ft | 462 kts | 87° |
| 2026-04-26 10:14 | 41.90286 | -86.78968 | 41003 ft | 462 kts | 87° |
| 2026-04-26 10:15 | 41.90605 | -86.70406 | 41003 ft | 462 kts | 87° |
| 2026-04-26 10:15 | 41.90920 | -86.61787 | 41003 ft | 462 kts | 87° |
| 2026-04-26 10:16 | 41.91228 | -86.53167 | 40999 ft | 462 kts | 87° |
| 2026-04-26 10:16 | 41.91530 | -86.44545 | 41002 ft | 462 kts | 87° |
| 2026-04-26 10:17 | 41.91826 | -86.35925 | 41004 ft | 462 kts | 87° |
| 2026-04-26 10:17 | 41.92113 | -86.27352 | 41003 ft | 462 kts | 87° |
| 2026-04-26 10:18 | 41.92396 | -86.18725 | 40999 ft | 462 kts | 87° |
| 2026-04-26 10:18 | 41.92672 | -86.10101 | 40999 ft | 463 kts | 88° |
| 2026-04-26 10:19 | 41.92942 | -86.01471 | 40999 ft | 463 kts | 88° |
| 2026-04-26 10:19 | 41.93204 | -85.92894 | 41000 ft | 463 kts | 88° |
| 2026-04-26 10:20 | 41.93420 | -85.85657 | 41003 ft | 463 kts | 88° |
| 2026-04-26 10:20 | 41.93712 | -85.75619 | 41004 ft | 463 kts | 88° |
| 2026-04-26 10:21 | 41.93956 | -85.66981 | 41003 ft | 463 kts | 88° |
| 2026-04-26 10:21 | 41.94194 | -85.58337 | 40999 ft | 463 kts | 88° |
| 2026-04-26 10:22 | 41.94424 | -85.49752 | 41003 ft | 463 kts | 88° |
| 2026-04-26 10:22 | 41.94648 | -85.41130 | 41002 ft | 463 kts | 88° |
| 2026-04-26 10:23 | 41.94867 | -85.32488 | 41003 ft | 463 kts | 88° |
| 2026-04-26 10:23 | 41.95080 | -85.23852 | 41001 ft | 463 kts | 88° |
| 2026-04-26 10:24 | 41.95159 | -85.15205 | 40999 ft | 463 kts | 90° |
| 2026-04-26 10:24 | 41.95098 | -85.06614 | 41003 ft | 463 kts | 90° |
| 2026-04-26 10:25 | 41.95035 | -84.97972 | 41001 ft | 463 kts | 90° |
| 2026-04-26 10:25 | 41.94989 | -84.89325 | 41000 ft | 463 kts | 90° |
| 2026-04-26 10:26 | 41.94946 | -84.80677 | 40999 ft | 463 kts | 90° |
| 2026-04-26 10:26 | 41.94898 | -84.72022 | 40999 ft | 463 kts | 90° |
| 2026-04-26 10:27 | 41.94843 | -84.63427 | 41004 ft | 463 kts | 90° |
| 2026-04-26 10:27 | 41.94780 | -84.54774 | 41004 ft | 463 kts | 90° |
| 2026-04-26 10:28 | 41.94711 | -84.46117 | 41003 ft | 463 kts | 90° |
| 2026-04-26 10:28 | 41.94635 | -84.37465 | 41004 ft | 463 kts | 91° |
| 2026-04-26 10:29 | 41.94554 | -84.28865 | 40999 ft | 463 kts | 91° |
| 2026-04-26 10:29 | 41.94465 | -84.20211 | 41000 ft | 463 kts | 91° |
| 2026-04-26 10:30 | 41.94370 | -84.11558 | 40999 ft | 463 kts | 91° |
| 2026-04-26 10:30 | 41.94268 | -84.02905 | 41003 ft | 463 kts | 91° |
| 2026-04-26 10:31 | 41.94161 | -83.94319 | 41003 ft | 463 kts | 91° |
| 2026-04-26 10:31 | 41.94046 | -83.85672 | 41003 ft | 463 kts | 91° |
| 2026-04-26 10:32 | 41.93926 | -83.77039 | 40999 ft | 463 kts | 91° |
| 2026-04-26 10:32 | 41.93799 | -83.68405 | 41003 ft | 462 kts | 91° |
| 2026-04-26 10:33 | 41.93666 | -83.59830 | 41003 ft | 462 kts | 91° |
| 2026-04-26 10:33 | 41.93527 | -83.51201 | 41003 ft | 462 kts | 91° |
| 2026-04-26 10:34 | 41.93439 | -83.42576 | 41000 ft | 462 kts | 90° |
| 2026-04-26 10:34 | 41.93420 | -83.33946 | 41003 ft | 462 kts | 90° |
| 2026-04-26 10:35 | 41.93401 | -83.26778 | 40998 ft | 462 kts | 90° |
| 2026-04-26 10:35 | 41.93354 | -83.16749 | 41004 ft | 462 kts | 90° |
| 2026-04-26 10:36 | 41.93301 | -83.08130 | 40999 ft | 462 kts | 90° |
| 2026-04-26 10:36 | 41.93240 | -82.99499 | 41003 ft | 462 kts | 90° |
| 2026-04-26 10:37 | 41.93173 | -82.90881 | 40999 ft | 462 kts | 90° |
| 2026-04-26 10:37 | 41.93101 | -82.82309 | 40999 ft | 462 kts | 90° |
| 2026-04-26 10:38 | 41.93022 | -82.73692 | 41000 ft | 462 kts | 91° |
| 2026-04-26 10:38 | 41.92951 | -82.66518 | 41003 ft | 462 kts | 91° |
| 2026-04-26 10:39 | 41.92860 | -82.57894 | 41000 ft | 462 kts | 91° |
| 2026-04-26 10:39 | 41.92746 | -82.47869 | 41003 ft | 462 kts | 91° |
| 2026-04-26 10:40 | 41.92641 | -82.39242 | 40999 ft | 462 kts | 91° |
| 2026-04-26 10:40 | 41.92548 | -82.32072 | 41003 ft | 462 kts | 91° |
| 2026-04-26 10:41 | 41.92431 | -82.23439 | 41003 ft | 462 kts | 91° |
| 2026-04-26 10:41 | 41.92287 | -82.13410 | 41000 ft | 462 kts | 91° |
| 2026-04-26 10:42 | 41.92178 | -82.06179 | 41003 ft | 462 kts | 91° |
| 2026-04-26 10:42 | 41.92043 | -81.97611 | 41003 ft | 462 kts | 91° |
| 2026-04-26 10:43 | 41.91902 | -81.88985 | 41003 ft | 462 kts | 91° |
| 2026-04-26 10:43 | 41.91619 | -81.80368 | 40998 ft | 462 kts | 96° |
| 2026-04-26 10:44 | 41.90858 | -81.71813 | 41004 ft | 462 kts | 97° |
| 2026-04-26 10:44 | 41.90063 | -81.63314 | 41003 ft | 462 kts | 97° |
| 2026-04-26 10:45 | 41.89279 | -81.54752 | 41001 ft | 462 kts | 97° |
| 2026-04-26 10:45 | 41.88503 | -81.46191 | 41000 ft | 462 kts | 97° |
| 2026-04-26 10:46 | 41.87724 | -81.37633 | 41003 ft | 462 kts | 97° |
| 2026-04-26 10:46 | 41.86943 | -81.29132 | 41001 ft | 462 kts | 97° |
| 2026-04-26 10:47 | 41.86149 | -81.20572 | 41000 ft | 462 kts | 97° |
| 2026-04-26 10:47 | 41.85350 | -81.12015 | 41000 ft | 462 kts | 97° |
| 2026-04-26 10:48 | 41.84543 | -81.03461 | 41002 ft | 462 kts | 97° |
| 2026-04-26 10:48 | 41.83731 | -80.94909 | 41000 ft | 462 kts | 97° |
| 2026-04-26 10:49 | 41.82918 | -80.86420 | 41000 ft | 462 kts | 97° |
| 2026-04-26 10:49 | 41.82092 | -80.77866 | 41003 ft | 462 kts | 97° |
| 2026-04-26 10:50 | 41.81260 | -80.69315 | 41003 ft | 463 kts | 97° |
| 2026-04-26 10:50 | 41.80423 | -80.60766 | 41001 ft | 463 kts | 97° |
| 2026-04-26 10:51 | 41.79154 | -80.47999 | 41004 ft | 463 kts | 97° |
| 2026-04-26 10:52 | 41.78294 | -80.39447 | 41003 ft | 463 kts | 97° |
| 2026-04-26 10:52 | 41.77429 | -80.30898 | 41003 ft | 463 kts | 98° |
| 2026-04-26 10:53 | 41.76558 | -80.22343 | 41000 ft | 463 kts | 98° |
| 2026-04-26 10:53 | 41.75686 | -80.13847 | 41001 ft | 464 kts | 98° |
| 2026-04-26 10:54 | 41.74356 | -80.01014 | 40998 ft | 464 kts | 98° |
| 2026-04-26 10:54 | 41.73461 | -79.92457 | 41001 ft | 464 kts | 98° |
| 2026-04-26 10:55 | 41.72560 | -79.83902 | 41004 ft | 464 kts | 98° |
| 2026-04-26 10:55 | 41.71658 | -79.75403 | 41002 ft | 464 kts | 98° |
| 2026-04-26 10:56 | 41.70744 | -79.66847 | 41003 ft | 464 kts | 98° |
| 2026-04-26 10:56 | 41.69823 | -79.58290 | 41000 ft | 465 kts | 98° |
| 2026-04-26 10:57 | 41.68895 | -79.49736 | 40999 ft | 465 kts | 98° |
| 2026-04-26 10:57 | 41.67968 | -79.41245 | 41002 ft | 465 kts | 98° |
| 2026-04-26 10:58 | 41.67029 | -79.32695 | 40999 ft | 465 kts | 98° |
| 2026-04-26 10:58 | 41.66084 | -79.24146 | 41001 ft | 465 kts | 98° |
| 2026-04-26 10:59 | 41.65132 | -79.15602 | 41003 ft | 465 kts | 98° |
| 2026-04-26 10:59 | 41.64183 | -79.07115 | 41003 ft | 465 kts | 98° |
| 2026-04-26 11:00 | 41.63223 | -78.98572 | 41000 ft | 465 kts | 98° |
| 2026-04-26 11:00 | 41.62256 | -78.90032 | 41000 ft | 465 kts | 98° |
| 2026-04-26 11:01 | 41.61283 | -78.81488 | 40999 ft | 465 kts | 98° |
| 2026-04-26 11:01 | 41.60351 | -78.73368 | 41009 ft | 464 kts | 98° |
| 2026-04-26 11:02 | 41.59369 | -78.64864 | 41006 ft | 468 kts | 99° |
| 2026-04-26 11:02 | 41.58369 | -78.56255 | 41006 ft | 470 kts | 99° |
| 2026-04-26 11:03 | 41.57359 | -78.47626 | 40998 ft | 470 kts | 99° |
| 2026-04-26 11:03 | 41.56344 | -78.39011 | 41000 ft | 469 kts | 99° |
| 2026-04-26 11:04 | 41.55332 | -78.30477 | 40998 ft | 468 kts | 99° |
| 2026-04-26 11:04 | 41.54318 | -78.21982 | 40590 ft | 463 kts | 99° |
| 2026-04-26 11:05 | 41.53809 | -78.17739 | 40229 ft | 463 kts | 99° |
| 2026-04-26 11:05 | 41.53297 | -78.13485 | 39835 ft | 465 kts | 99° |
| 2026-04-26 11:05 | 41.52784 | -78.09230 | 39485 ft | 464 kts | 99° |
| 2026-04-26 11:05 | 41.52270 | -78.04980 | 39154 ft | 463 kts | 99° |
| 2026-04-26 11:06 | 41.51756 | -78.00742 | 38789 ft | 463 kts | 99° |
| 2026-04-26 11:06 | 41.51238 | -77.96497 | 38359 ft | 464 kts | 99° |
| 2026-04-26 11:06 | 41.50684 | -77.92302 | 37933 ft | 465 kts | 100° |
| 2026-04-26 11:06 | 41.50087 | -77.88071 | 37580 ft | 464 kts | 101° |
| 2026-04-26 11:07 | 41.49477 | -77.83858 | 37342 ft | 460 kts | 101° |
| 2026-04-26 11:07 | 41.48871 | -77.79684 | 37126 ft | 456 kts | 101° |
| 2026-04-26 11:07 | 41.48270 | -77.75538 | 36879 ft | 454 kts | 101° |
| 2026-04-26 11:07 | 41.47676 | -77.71420 | 36607 ft | 452 kts | 101° |
| 2026-04-26 11:08 | 41.47084 | -77.67308 | 36342 ft | 450 kts | 101° |
| 2026-04-26 11:08 | 41.46498 | -77.63221 | 36076 ft | 448 kts | 101° |
| 2026-04-26 11:08 | 41.45921 | -77.59204 | 35842 ft | 446 kts | 101° |
| 2026-04-26 11:08 | 41.45339 | -77.55154 | 35585 ft | 444 kts | 101° |
| 2026-04-26 11:09 | 41.44759 | -77.51127 | 35371 ft | 441 kts | 101° |
| 2026-04-26 11:09 | 41.44178 | -77.47117 | 35117 ft | 439 kts | 101° |
| 2026-04-26 11:09 | 41.43598 | -77.43124 | 34844 ft | 438 kts | 101° |
| 2026-04-26 11:09 | 41.43018 | -77.39141 | 34591 ft | 437 kts | 101° |
| 2026-04-26 11:10 | 41.42440 | -77.35178 | 34373 ft | 435 kts | 101° |
| 2026-04-26 11:10 | 41.41862 | -77.31232 | 34127 ft | 433 kts | 101° |
| 2026-04-26 11:10 | 41.41287 | -77.27308 | 33870 ft | 432 kts | 101° |
| 2026-04-26 11:10 | 41.40711 | -77.23389 | 33629 ft | 430 kts | 101° |
| 2026-04-26 11:11 | 41.40142 | -77.19536 | 33401 ft | 428 kts | 101° |
| 2026-04-26 11:11 | 41.39568 | -77.15656 | 33180 ft | 427 kts | 101° |
| 2026-04-26 11:11 | 41.38994 | -77.11780 | 32930 ft | 426 kts | 101° |
| 2026-04-26 11:11 | 41.38421 | -77.07918 | 32694 ft | 424 kts | 101° |
| 2026-04-26 11:12 | 41.37850 | -77.04080 | 32515 ft | 422 kts | 101° |
| 2026-04-26 11:12 | 41.37281 | -77.00263 | 32295 ft | 419 kts | 101° |
| 2026-04-26 11:12 | 41.36713 | -76.96461 | 32032 ft | 419 kts | 101° |
| 2026-04-26 11:12 | 41.36143 | -76.92661 | 31793 ft | 418 kts | 101° |
| 2026-04-26 11:13 | 41.35574 | -76.88876 | 31597 ft | 416 kts | 101° |
| 2026-04-26 11:13 | 41.35016 | -76.85161 | 31400 ft | 414 kts | 101° |
| 2026-04-26 11:13 | 41.34450 | -76.81415 | 31174 ft | 413 kts | 101° |
| 2026-04-26 11:13 | 41.33881 | -76.77671 | 30925 ft | 412 kts | 102° |
| 2026-04-26 11:14 | 41.33131 | -76.73991 | 30694 ft | 411 kts | 108° |
| 2026-04-26 11:14 | 41.32183 | -76.70415 | 30515 ft | 409 kts | 110° |
| 2026-04-26 11:14 | 41.31177 | -76.66888 | 30347 ft | 406 kts | 111° |
| 2026-04-26 11:14 | 41.30174 | -76.63385 | 30142 ft | 405 kts | 110° |
| 2026-04-26 11:15 | 41.29190 | -76.59877 | 29911 ft | 404 kts | 110° |
| 2026-04-26 11:15 | 41.28238 | -76.56421 | 29704 ft | 403 kts | 110° |
| 2026-04-26 11:15 | 41.27287 | -76.52917 | 29497 ft | 402 kts | 110° |
| 2026-04-26 11:15 | 41.26343 | -76.49421 | 29293 ft | 401 kts | 110° |
| 2026-04-26 11:16 | 41.25406 | -76.45940 | 29096 ft | 400 kts | 109° |
| 2026-04-26 11:16 | 41.24474 | -76.42472 | 28893 ft | 398 kts | 109° |
| 2026-04-26 11:16 | 41.23542 | -76.39013 | 28708 ft | 397 kts | 110° |
| 2026-04-26 11:16 | 41.22610 | -76.35559 | 28347 ft | 397 kts | 110° |
| 2026-04-26 11:17 | 41.21681 | -76.32123 | 27969 ft | 394 kts | 110° |
| 2026-04-26 11:17 | 41.20758 | -76.28713 | 27598 ft | 391 kts | 110° |
| 2026-04-26 11:17 | 41.19842 | -76.25332 | 27191 ft | 388 kts | 110° |
| 2026-04-26 11:17 | 41.18938 | -76.22006 | 26707 ft | 389 kts | 110° |
| 2026-04-26 11:18 | 41.18019 | -76.18632 | 26213 ft | 389 kts | 110° |
| 2026-04-26 11:18 | 41.17101 | -76.15266 | 25716 ft | 387 kts | 110° |
| 2026-04-26 11:18 | 41.16187 | -76.11915 | 25224 ft | 385 kts | 110° |
| 2026-04-26 11:18 | 41.15276 | -76.08580 | 24719 ft | 383 kts | 110° |
| 2026-04-26 11:19 | 41.14368 | -76.05264 | 24214 ft | 381 kts | 110° |
| 2026-04-26 11:19 | 41.13464 | -76.01969 | 23731 ft | 380 kts | 110° |
| 2026-04-26 11:19 | 41.12562 | -75.98684 | 23225 ft | 378 kts | 110° |
| 2026-04-26 11:19 | 41.11674 | -75.95458 | 22732 ft | 377 kts | 110° |
| 2026-04-26 11:20 | 41.10778 | -75.92201 | 22237 ft | 375 kts | 110° |
| 2026-04-26 11:20 | 41.10175 | -75.90012 | 21903 ft | 374 kts | 110° |
| 2026-04-26 11:20 | 41.08996 | -75.85735 | 21247 ft | 372 kts | 110° |
| 2026-04-26 11:20 | 41.08108 | -75.82520 | 20750 ft | 371 kts | 110° |
| 2026-04-26 11:21 | 41.07222 | -75.79314 | 20257 ft | 370 kts | 110° |
| 2026-04-26 11:21 | 41.06337 | -75.76117 | 19748 ft | 369 kts | 110° |
| 2026-04-26 11:21 | 41.05316 | -75.72435 | 19181 ft | 367 kts | 110° |
| 2026-04-26 11:21 | 41.04575 | -75.69766 | 18762 ft | 366 kts | 110° |
| 2026-04-26 11:22 | 41.03707 | -75.66641 | 18180 ft | 367 kts | 110° |
| 2026-04-26 11:22 | 41.02822 | -75.63457 | 17561 ft | 369 kts | 110° |
| 2026-04-26 11:22 | 41.01950 | -75.60330 | 16920 ft | 355 kts | 110° |
| 2026-04-26 11:22 | 41.01110 | -75.57319 | 16290 ft | 342 kts | 110° |
| 2026-04-26 11:23 | 41.00297 | -75.54409 | 15655 ft | 331 kts | 110° |
| 2026-04-26 11:23 | 40.99510 | -75.51591 | 15023 ft | 322 kts | 110° |
| 2026-04-26 11:23 | 40.98742 | -75.48852 | 14397 ft | 313 kts | 110° |
| 2026-04-26 11:23 | 40.97995 | -75.46183 | 13769 ft | 306 kts | 110° |
| 2026-04-26 11:24 | 40.97274 | -75.43610 | 13155 ft | 299 kts | 110° |
| 2026-04-26 11:24 | 40.96553 | -75.41036 | 12549 ft | 301 kts | 110° |
| 2026-04-26 11:24 | 40.95815 | -75.38410 | 11934 ft | 308 kts | 110° |
| 2026-04-26 11:24 | 40.95062 | -75.35731 | 11315 ft | 314 kts | 110° |
| 2026-04-26 11:25 | 40.94295 | -75.33005 | 10704 ft | 319 kts | 110° |
| 2026-04-26 11:25 | 40.93517 | -75.30243 | 10093 ft | 323 kts | 110° |
| 2026-04-26 11:25 | 40.92737 | -75.27474 | 9454 ft | 316 kts | 110° |
| 2026-04-26 11:25 | 40.91985 | -75.24808 | 8815 ft | 303 kts | 110° |
| 2026-04-26 11:26 | 40.91271 | -75.22288 | 8198 ft | 290 kts | 110° |
| 2026-04-26 11:26 | 40.90584 | -75.19854 | 7782 ft | 275 kts | 110° |
| 2026-04-26 11:26 | 40.89932 | -75.17546 | 7373 ft | 262 kts | 110° |
| 2026-04-26 11:26 | 40.89293 | -75.15290 | 7037 ft | 260 kts | 110° |
| 2026-04-26 11:27 | 40.88660 | -75.13056 | 6899 ft | 259 kts | 110° |
| 2026-04-26 11:27 | 40.88029 | -75.10836 | 6883 ft | 257 kts | 110° |
| 2026-04-26 11:27 | 40.87404 | -75.08623 | 6884 ft | 258 kts | 110° |
| 2026-04-26 11:27 | 40.86775 | -75.06396 | 6885 ft | 259 kts | 110° |
| 2026-04-26 11:28 | 40.86146 | -75.04164 | 6883 ft | 259 kts | 110° |
| 2026-04-26 11:28 | 40.85526 | -75.01967 | 6884 ft | 258 kts | 110° |
| 2026-04-26 11:28 | 40.84896 | -74.99741 | 6880 ft | 259 kts | 110° |
| 2026-04-26 11:28 | 40.84266 | -74.97513 | 6882 ft | 259 kts | 110° |
| 2026-04-26 11:29 | 40.83636 | -74.95291 | 6881 ft | 258 kts | 110° |
| 2026-04-26 11:29 | 40.83007 | -74.93071 | 6884 ft | 259 kts | 110° |
| 2026-04-26 11:29 | 40.82375 | -74.90846 | 6882 ft | 258 kts | 110° |
| 2026-04-26 11:29 | 40.81744 | -74.88626 | 6880 ft | 258 kts | 110° |
| 2026-04-26 11:30 | 40.80949 | -74.86543 | 6870 ft | 254 kts | 130° |
| 2026-04-26 11:30 | 40.80066 | -74.85522 | 6882 ft | 256 kts | 148° |
| 2026-04-26 11:30 | 40.77912 | -74.84147 | 6887 ft | 262 kts | 157° |
| 2026-04-26 11:30 | 40.76239 | -74.83227 | 6879 ft | 259 kts | 158° |
| 2026-04-26 11:31 | 40.74572 | -74.82324 | 6880 ft | 259 kts | 158° |
| 2026-04-26 11:31 | 40.72908 | -74.81426 | 6878 ft | 258 kts | 158° |
| 2026-04-26 11:31 | 40.71248 | -74.80534 | 6880 ft | 258 kts | 158° |
| 2026-04-26 11:31 | 40.69593 | -74.79644 | 6877 ft | 256 kts | 158° |
| 2026-04-26 11:32 | 40.67936 | -74.78748 | 6882 ft | 257 kts | 158° |
| 2026-04-26 11:32 | 40.66279 | -74.77859 | 6881 ft | 257 kts | 158° |
| 2026-04-26 11:32 | 40.64639 | -74.76984 | 6881 ft | 258 kts | 158° |
| 2026-04-26 11:32 | 40.62970 | -74.76093 | 6884 ft | 259 kts | 158° |
| 2026-04-26 11:33 | 40.61305 | -74.75201 | 6883 ft | 259 kts | 158° |
| 2026-04-26 11:33 | 40.59636 | -74.74309 | 6883 ft | 259 kts | 158° |
| 2026-04-26 11:33 | 40.57968 | -74.73416 | 6883 ft | 258 kts | 158° |
| 2026-04-26 11:33 | 40.56303 | -74.72525 | 6880 ft | 259 kts | 158° |
| 2026-04-26 11:34 | 40.54638 | -74.71636 | 6840 ft | 258 kts | 158° |
| 2026-04-26 11:34 | 40.52982 | -74.70745 | 6628 ft | 256 kts | 158° |
| 2026-04-26 11:34 | 40.51339 | -74.69862 | 6406 ft | 252 kts | 158° |
| 2026-04-26 11:34 | 40.49768 | -74.69019 | 6272 ft | 244 kts | 158° |
| 2026-04-26 11:35 | 40.48204 | -74.68185 | 6012 ft | 239 kts | 157° |
| 2026-04-26 11:35 | 40.46858 | -74.67008 | 5718 ft | 232 kts | 129° |
| 2026-04-26 11:35 | 40.46137 | -74.65159 | 5478 ft | 224 kts | 108° |
| 2026-04-26 11:35 | 40.45669 | -74.63228 | 5233 ft | 221 kts | 108° |
| 2026-04-26 11:36 | 40.45215 | -74.61392 | 5075 ft | 217 kts | 108° |
| 2026-04-26 11:36 | 40.44733 | -74.59443 | 4833 ft | 218 kts | 108° |
| 2026-04-26 11:36 | 40.44267 | -74.57545 | 4575 ft | 219 kts | 108° |
| 2026-04-26 11:36 | 40.43871 | -74.55664 | 4303 ft | 214 kts | 95° |
| 2026-04-26 11:37 | 40.44250 | -74.53821 | 4026 ft | 212 kts | 56° |
| 2026-04-26 11:37 | 40.45151 | -74.52301 | 3816 ft | 214 kts | 52° |
| 2026-04-26 11:37 | 40.46052 | -74.50715 | 3571 ft | 219 kts | 54° |
| 2026-04-26 11:37 | 40.46938 | -74.49086 | 3331 ft | 218 kts | 55° |
| 2026-04-26 11:38 | 40.47797 | -74.47461 | 3084 ft | 215 kts | 56° |
| 2026-04-26 11:38 | 40.48629 | -74.45849 | 2843 ft | 208 kts | 56° |
| 2026-04-26 11:38 | 40.49413 | -74.44305 | 2602 ft | 200 kts | 56° |
| 2026-04-26 11:38 | 40.50164 | -74.42804 | 2366 ft | 192 kts | 57° |
| 2026-04-26 11:39 | 40.50882 | -74.41357 | 2061 ft | 188 kts | 57° |
| 2026-04-26 11:39 | 40.51587 | -74.39929 | 1701 ft | 189 kts | 57° |
| 2026-04-26 11:39 | 40.52270 | -74.38541 | 1569 ft | 167 kts | 57° |
| 2026-04-26 11:39 | 40.52863 | -74.37334 | 1566 ft | 148 kts | 57° |
| 2026-04-26 11:40 | 40.53416 | -74.36204 | 1578 ft | 148 kts | 57° |
| 2026-04-26 11:40 | 40.53959 | -74.35091 | 1569 ft | 141 kts | 57° |
| 2026-04-26 11:40 | 40.54481 | -74.34022 | 1572 ft | 139 kts | 57° |
| 2026-04-26 11:40 | 40.55006 | -74.32944 | 1586 ft | 140 kts | 57° |
| 2026-04-26 11:41 | 40.55533 | -74.31861 | 1585 ft | 141 kts | 57° |
| 2026-04-26 11:42 | 40.59203 | -74.24306 | 1579 ft | 139 kts | 57° |
| 2026-04-26 11:43 | 40.59725 | -74.23234 | 1582 ft | 139 kts | 56° |
| 2026-04-26 11:43 | 40.60425 | -74.22393 | 1579 ft | 137 kts | 29° |
| 2026-04-26 11:43 | 40.61263 | -74.21744 | 1497 ft | 143 kts | 32° |
| 2026-04-26 11:43 | 40.62086 | -74.21074 | 1303 ft | 139 kts | 30° |
| 2026-04-26 11:44 | 40.62930 | -74.20497 | 1134 ft | 136 kts | 26° |
| 2026-04-26 11:44 | 40.63784 | -74.19950 | 956 ft | 137 kts | 26° |
| 2026-04-26 11:44 | 40.64644 | -74.19406 | 776 ft | 137 kts | 24° |
| 2026-04-26 11:44 | 40.65506 | -74.18895 | 619 ft | 133 kts | 24° |
| 2026-04-26 11:45 | 40.66364 | -74.18367 | 471 ft | 141 kts | 24° |
| 2026-04-26 11:45 | 40.67247 | -74.17804 | 300 ft | 137 kts | 26° |
| 2026-04-26 11:45 | 40.68073 | -74.17230 | 71 ft | 131 kts | 25° |
| 2026-04-26 11:45 | 40.68852 | -74.16737 | 26 ft | 113 kts | 27° |
| 2026-04-26 11:46 | 40.69348 | -74.16421 | 29 ft | 44 kts | 26° |
| 2026-04-26 11:46 | 40.69605 | -74.16289 | 27 ft | 32 kts | 0° |
| 2026-04-26 11:46 | 40.69748 | -74.16304 | 29 ft | 14 kts | 355° |
| 2026-04-26 11:46 | 40.69814 | -74.16313 | 28 ft | 5 kts | 348° |
| 2026-04-26 11:47 | 40.69830 | -74.16325 | 31 ft | 0 kts | 323° |
| 2026-04-26 11:47 | 40.69841 | -74.16340 | 28 ft | 7 kts | 310° |
| 2026-04-26 11:47 | 40.69869 | -74.16401 | 29 ft | 8 kts | 296° |
| 2026-04-26 11:47 | 40.69893 | -74.16475 | 27 ft | 9 kts | 288° |
| 2026-04-26 11:48 | 40.69903 | -74.16547 | 30 ft | 7 kts | 274° |
| 2026-04-26 11:48 | 40.69888 | -74.16597 | 25 ft | 5 kts | 234° |
| 2026-04-26 11:48 | 40.69861 | -74.16625 | 30 ft | 5 kts | 212° |
| 2026-04-26 11:48 | 40.69832 | -74.16647 | 27 ft | 5 kts | 206° |
| 2026-04-26 11:49 | 40.69777 | -74.16682 | 30 ft | 11 kts | 206° |
| 2026-04-26 11:49 | 40.69710 | -74.16726 | 32 ft | 10 kts | 214° |
| 2026-04-26 11:49 | 40.69675 | -74.16798 | 26 ft | 9 kts | 247° |
| 2026-04-26 11:49 | 40.69653 | -74.16873 | 26 ft | 9 kts | 250° |
| 2026-04-26 11:50 | 40.69634 | -74.16946 | 26 ft | 8 kts | 250° |
| 2026-04-26 11:50 | 40.69615 | -74.17015 | 26 ft | 8 kts | 251° |
| 2026-04-26 11:50 | 40.69605 | -74.17080 | 27 ft | 7 kts | 275° |
| 2026-04-26 11:50 | 40.69630 | -74.17119 | 27 ft | 5 kts | 334° |
| 2026-04-26 11:51 | 40.69663 | -74.17141 | 27 ft | 7 kts | 330° |
| 2026-04-26 11:51 | 40.69725 | -74.17196 | 25 ft | 11 kts | 321° |
| 2026-04-26 11:51 | 40.69780 | -74.17260 | 27 ft | 10 kts | 320° |
| 2026-04-26 11:51 | 40.69830 | -74.17324 | 27 ft | 10 kts | 310° |
| 2026-04-26 11:52 | 40.69867 | -74.17396 | 27 ft | 9 kts | 296° |
| 2026-04-26 11:52 | 40.69883 | -74.17448 | 27 ft | 9 kts | 288° |
| 2026-04-26 11:52 | 40.69902 | -74.17549 | 27 ft | 8 kts | 271° |
| 2026-04-26 11:52 | 40.69881 | -74.17615 | 27 ft | 7 kts | 229° |
| 2026-04-26 11:53 | 40.69846 | -74.17657 | 27 ft | 3 kts | 220° |
| 2026-04-26 11:56 | 40.69832 | -74.17672 | 27 ft | 7 kts | 220° |
| 2026-04-26 11:57 | 40.69788 | -74.17703 | 27 ft | 7 kts | 194° |
| 2026-04-26 11:57 | 40.69749 | -74.17701 | 27 ft | 4 kts | 168° |
| 2026-04-26 11:57 | 40.69731 | -74.17696 | 27 ft | 3 kts | 168° |
| 2026-04-26 11:57 | 40.69701 | -74.17687 | 27 ft | 3 kts | 166° |
| 2026-04-26 11:58 | 40.69687 | -74.17682 | 26 ft | 1 kts | 166° |
| 2026-04-26 11:58 | 40.69676 | -74.17678 | 27 ft | 1 kts | 166° |
| 2026-04-26 11:58 | 40.69673 | -74.17677 | 27 ft | 0 kts | 166° |